Skip to main content

NOAA/GLERL Met Station at Chicago, IL

Previous 5 days (top of hour only)
See also Previous 3 Hours (2 minute increments)
Jump down to Data
Switch to [English][Metric]
Zoom: Click and drag, Pan: shift-click and drag, Unzoom: double-click, Unzoom All




Note: Speed = mean wind during 2-minute period at top of hour,
Gust = max wind during 2-minute period at top of hour,
Peak = max wind during entire hour.
• See also 5-day windrose plot


NOAA/GLERL Met Station at Chicago, IL

Previous 5 days (top of hour only)
See also Previous 3 Hours (2 minute increments)
Jump up to Graphs
Switch to [English][Metric]
                  Wind  Wind  Wind   Air   Dew   Rel
                   Spd   Gst   Dir  Temp    Pt   Hum
YYYY-MM-DD   CDT   kts   kts   deg     F     F     %
2017-08-23 08:00  13.6  15.9   311  66.0  52.0  60.2
2017-08-23 07:00  14.6  16.5   294  65.7  52.1  61.1
2017-08-23 06:00  12.6  14.0   279  65.3  52.4  62.6
2017-08-23 05:00  13.6  15.0   292  65.7  51.8  60.4
2017-08-23 04:00  14.2  15.9   301  66.9  52.7  59.7
2017-08-23 03:00  14.8  17.3   301  67.8  52.3  57.2
2017-08-23 02:00  14.6  15.7   293  68.9  52.1  54.6
2017-08-23 01:00  13.8  15.2   287  69.3  51.5  52.6
2017-08-23 00:00  12.8  14.4   297  70.5  51.9  51.2
2017-08-22 23:00  15.7  17.7   306  71.2  51.8  49.7
2017-08-22 22:00  12.8  15.2   313  72.1  52.1  48.7
2017-08-22 21:00  16.1  17.1   327  73.2  51.8  46.5
2017-08-22 20:00  17.3  19.6   326  74.5  52.3  45.3
2017-08-22 19:00  14.2  15.7   325  75.7  52.0  43.0
2017-08-22 18:00  16.3  18.3   311  76.5  51.9  41.8
2017-08-22 17:00  17.9  21.0   323  77.0  55.9  47.5
2017-08-22 16:00  14.0  16.5   325  77.0  57.2  49.8
2017-08-22 15:00  16.7  18.1   297  77.7  55.0  44.8
2017-08-22 14:00  18.5  20.4   295  77.0  56.4  48.5
2017-08-22 13:00  13.6  15.0   287  74.7  61.2  62.3
2017-08-22 12:00  17.9  19.8   278  73.9  62.8  67.8
2017-08-22 11:00  17.9  19.1   286  73.8  64.3  71.8
2017-08-22 10:00  19.4  20.6   276  73.2  65.5  76.3
2017-08-22 09:00  16.3  19.4   255  72.1  67.1  84.0
2017-08-22 08:00  13.0  14.8   245  72.3  67.5  84.6
2017-08-22 07:00  15.7  19.2   263  72.9  68.0  84.4
2017-08-22 06:00  14.2  16.1   258  73.8  70.0  87.8
2017-08-22 05:00  16.1  20.4   246  73.4  72.0  95.4
2017-08-22 04:00  20.4  23.1   227  74.7  69.7  84.4
2017-08-22 03:00  26.0  29.9   218  74.7  69.3  83.1
2017-08-22 02:00  22.9  26.2   205  74.7  70.2  85.9
2017-08-22 01:00  24.7  27.4   202  73.4  68.5  84.3
2017-08-22 00:00  20.4  23.3   211  70.7  70.1  97.9
2017-08-21 23:00  17.1  18.1   206  79.3  71.0  75.3
2017-08-21 22:00  20.4  21.8   204  79.7  70.5  73.0
2017-08-21 21:00  16.7  18.3   208  79.3  70.9  75.1
2017-08-21 20:00  18.1  19.4   206  80.2  68.9  67.8
2017-08-21 19:00  23.1  27.6   215  82.9  69.9  64.2
2017-08-21 18:00   7.2   7.8   181  77.7  72.6  84.0
2017-08-21 17:00  11.9  13.6   130  77.2  72.5  85.1
2017-08-21 16:00  10.1  12.4   147  77.0  73.0  87.1
2017-08-21 15:00  10.3  10.9    99  76.6  72.7  87.5
2017-08-21 14:00   6.8   7.6    99  78.1  72.2  81.8
2017-08-21 13:00   5.2   6.2   144  77.7  72.3  83.0
2017-08-21 12:00   6.4   7.4   311  80.1  71.6  75.1
2017-08-21 11:00  11.3  12.8   282  79.2  70.8  75.1
2017-08-21 10:00  11.5  12.2   270  77.0  70.3  79.4
2017-08-21 09:00   4.3   5.1   256  76.3  70.7  82.5
2017-08-21 08:00  11.7  12.6   198  74.8  70.4  85.8
2017-08-21 07:00  16.3  17.9   206  74.5  69.5  84.3
2017-08-21 06:00  15.0  17.1   194  73.8  68.9  84.6
2017-08-21 05:00  19.8  21.2   184  74.7  68.6  81.0
2017-08-21 04:00  12.2  13.0   182  75.0  69.8  83.5
2017-08-21 03:00  10.1  11.1   187  76.5  69.7  79.2
2017-08-21 02:00  19.1  19.8   184  75.9  70.5  83.1
2017-08-21 01:00   9.9  10.5   190  77.0  72.0  84.3
2017-08-21 00:00   6.6   7.4   178  77.4  71.1  80.8
2017-08-20 23:00   9.7  10.1   160  78.4  70.1  75.3
2017-08-20 22:00   7.8   8.2   153  79.0  70.5  74.9
2017-08-20 21:00  10.7  10.7   181  80.2  70.9  72.8
2017-08-20 20:00   9.1   9.9   161  82.0  69.9  66.2
2017-08-20 19:00  13.6  13.8   180  82.9  68.1  60.4
2017-08-20 18:00   8.2   8.4   180  82.9  68.4  61.0
2017-08-20 17:00   8.7  10.1   213  81.7  69.2  65.4
2017-08-20 16:00  13.4  14.6   119  78.3  69.4  73.7
2017-08-20 15:00  14.2  14.8   118  78.8  68.4  70.0
2017-08-20 14:00  15.0  15.6   121  79.3  65.9  63.0
2017-08-20 13:00  10.9  11.5   118  77.4  68.1  72.7
2017-08-20 12:00  10.3  10.9   122  77.2  66.4  68.8
2017-08-20 11:00  10.7  11.1   141  76.8  65.8  68.4
2017-08-20 10:00   8.2   9.1   156  75.2  64.2  68.2
2017-08-20 09:00   8.0   8.7   181  73.6  63.1  69.3
2017-08-20 08:00   8.2   9.3   182  72.1  63.7  74.5
2017-08-20 07:00  10.1  10.7   187  71.8  62.2  71.3
2017-08-20 06:00   9.3  10.1   186  71.6  62.4  72.3
2017-08-20 05:00  10.3  11.1   191  72.1  62.2  70.6
2017-08-20 04:00   7.8   8.4   190  72.1  62.2  70.5
2017-08-20 03:00   7.0   7.6   193  72.7  61.2  66.9
2017-08-20 02:00   8.2   8.6   184  73.6  61.5  65.5
2017-08-20 01:00   8.4   8.7   175  73.9  60.9  63.2
2017-08-20 00:00  11.1  12.1   175  74.7  62.2  64.7
2017-08-19 23:00   7.8   8.4   172  74.5  63.2  67.4
2017-08-19 22:00   8.2   9.5   158  74.5  62.8  66.6
2017-08-19 21:00   9.7  10.3   136  74.7  61.8  63.7
2017-08-19 20:00  10.1  10.7   131  74.5  60.4  61.0
2017-08-19 19:00   8.6   9.1   125  75.4  62.2  63.1
2017-08-19 18:00   7.2   8.0   111  75.9  62.0  61.5
2017-08-19 17:00   9.1   9.9   125  75.4  61.2  60.9
2017-08-19 16:00   8.6   9.1   117  74.5  62.6  66.0
2017-08-19 15:00   7.2   8.0   106  72.9  63.1  71.0
2017-08-19 14:00   4.9   5.6   110  72.3  63.8  74.1
2017-08-19 13:00   1.9   2.3    80  71.8  63.5  74.8
2017-08-19 12:00   2.5   3.7    71  71.1  64.6  79.8
2017-08-19 11:00   1.0   1.6     2  70.3  63.7  79.1
2017-08-19 10:00   2.9   3.7     1  70.0  63.3  79.0
2017-08-19 09:00   4.1   4.3     4  69.1  63.5  82.0
2017-08-19 08:00   7.0   8.2   320  68.4  64.3  86.8
2017-08-19 07:00   8.2   8.9   317  67.6  63.4  86.0
2017-08-19 06:00   7.0   8.0   317  67.8  62.6  83.1
2017-08-19 05:00   7.2   8.4   318  68.5  63.5  83.6
2017-08-19 04:00  11.5  12.4   323  68.9  62.3  79.1
2017-08-19 03:00  12.4  14.2   326  70.0  61.4  73.9
2017-08-19 02:00  13.8  15.4   327  71.1  61.3  71.0
2017-08-19 01:00  14.8  16.1   340  72.3  60.7  66.4
2017-08-19 00:00  14.0  14.8   329  73.6  63.1  69.3
2017-08-18 23:00  13.4  14.6   302  76.1  62.4  62.0
2017-08-18 22:00   8.9   9.7   309  76.8  63.2  62.3
2017-08-18 21:00  13.8  15.2   274  78.1  62.0  57.2
2017-08-18 20:00   2.5   3.1   119  73.9  67.1  78.9
2017-08-18 19:00   6.8   7.2    90  74.1  67.3  79.0